Time;durP1;ratioP1;P1;durP2;ratioP2;P2;SDS_P1;SDS_P2;PMS_P1;PMS_P2;Temp;Humidity;BMP_temperature;BMP_pressure;BME280_temperature;BME280_humidity;BME280_pressure;Samples;Min_cycle;Max_cycle;Signal;HPM_P1;HPM_P2
2023/05/20 00:00:51;;;;;;;19.30;9.25;;;;;;;13.74;100.00;97880.34;5042359;28;20021;-79
2023/05/20 00:03:18;;;;;;;20.05;8.88;;;;;;;13.71;100.00;97888.59;5049329;28;20024;-80
2023/05/20 00:05:44;;;;;;;21.77;8.82;;;;;;;13.62;100.00;97870.44;5049364;28;20032;-80
2023/05/20 00:08:10;;;;;;;12.77;7.93;;;;;;;13.53;100.00;97877.31;5036247;28;20485;-79
2023/05/20 00:10:35;;;;;;;16.83;8.50;;;;;;;13.49;100.00;97882.03;5036561;28;20025;-79
2023/05/20 00:13:01;;;;;;;14.43;8.32;;;;;;;13.41;100.00;97887.03;5040075;28;20029;-79
2023/05/20 00:15:27;;;;;;;18.10;9.52;;;;;;;13.41;100.00;97888.88;5076477;28;20024;-79
2023/05/20 00:17:53;;;;;;;13.73;8.20;;;;;;;13.36;100.00;97880.25;5059319;28;20101;-78
2023/05/20 00:20:18;;;;;;;14.02;8.45;;;;;;;13.34;100.00;97895.63;5076525;28;20492;-79
2023/05/20 00:22:44;;;;;;;13.40;8.05;;;;;;;13.25;100.00;97896.25;5076388;28;20032;-79
2023/05/20 00:25:10;;;;;;;12.73;8.32;;;;;;;13.22;100.00;97907.22;5059485;28;20024;-79
2023/05/20 00:27:35;;;;;;;16.80;9.32;;;;;;;13.12;100.00;97892.66;5059100;28;20431;-78
2023/05/20 00:30:01;;;;;;;18.45;9.45;;;;;;;13.02;100.00;97903.09;5093983;28;20081;-79
2023/05/20 00:32:27;;;;;;;16.52;9.25;;;;;;;13.01;100.00;97904.09;5076453;28;20024;-79
2023/05/20 00:34:59;;;;;;;14.40;8.55;;;;;;;13.02;100.00;97903.97;5075846;28;20115;-79
2023/05/20 00:37:25;;;;;;;14.43;8.52;;;;;;;12.95;100.00;97894.59;5076344;28;20458;-79
2023/05/20 00:39:50;;;;;;;13.50;8.48;;;;;;;12.89;100.00;97896.81;5058897;28;20123;-78
2023/05/20 00:42:23;;;;;;;15.70;7.97;;;;;;;12.81;100.00;97878.53;5059130;28;20020;-80
2023/05/20 00:44:49;;;;;;;13.48;8.48;;;;;;;12.70;100.00;97874.84;5058927;28;20067;-79
2023/05/20 00:47:20;;;;;;;13.73;8.20;;;;;;;12.70;100.00;97896.31;5076006;28;20048;-79
2023/05/20 00:49:46;;;;;;;11.88;7.43;;;;;;;12.70;100.00;97896.31;5058775;28;20093;-79
2023/05/20 00:52:13;;;;;;;14.30;7.55;;;;;;;12.63;100.00;97900.34;5059192;28;20028;-79
2023/05/20 00:54:39;;;;;;;13.63;7.95;;;;;;;12.60;100.00;97897.84;5075669;28;20039;-79
2023/05/20 00:57:06;;;;;;;11.82;7.28;;;;;;;12.57;100.00;97903.44;5058775;28;20043;-78
2023/05/20 00:59:33;;;;;;;15.43;8.20;;;;;;;12.52;100.00;97909.94;5075683;28;20557;-78
2023/05/20 01:01:59;;;;;;;16.70;8.63;;;;;;;12.55;100.00;97900.81;5075489;28;20490;-79
2023/05/20 01:04:24;;;;;;;15.57;8.10;;;;;;;12.52;100.00;97909.94;5058761;28;20067;-79
2023/05/20 01:06:50;;;;;;;14.98;8.52;;;;;;;12.46;100.00;97904.09;5075922;28;20411;-79
2023/05/20 01:09:15;;;;;;;12.70;7.78;;;;;;;12.42;100.00;97895.41;5075367;28;20130;-79
2023/05/20 01:11:46;;;;;;;13.00;7.97;;;;;;;12.43;100.00;97905.16;5058597;28;20063;-79
2023/05/20 01:14:12;;;;;;;14.02;7.70;;;;;;;12.34;100.00;97895.03;5075005;28;20036;-79
2023/05/20 01:16:38;;;;;;;12.32;7.68;;;;;;;12.33;100.00;97895.13;5058537;28;20085;-80
2023/05/20 01:19:07;;;;;;;17.38;7.97;;;;;;;12.35;100.00;97895.88;5057731;28;20465;-80
2023/05/20 01:21:32;;;;;;;14.25;7.30;;;;;;;12.38;100.00;97885.81;5075560;28;20399;-79
2023/05/20 01:24:00;;;;;;;14.27;7.50;;;;;;;12.32;100.00;97880.84;5058288;28;20100;-79
2023/05/20 01:26:26;;;;;;;14.15;7.85;;;;;;;12.31;100.00;97888.97;5075349;28;20085;-79
2023/05/20 01:28:51;;;;;;;13.93;8.43;;;;;;;12.32;100.00;97894.25;5075279;28;20123;-78
2023/05/20 01:31:21;;;;;;;15.32;8.10;;;;;;;12.30;100.00;97893.50;5058239;28;20031;-80
2023/05/20 01:33:51;;;;;;;18.63;7.72;;;;;;;12.27;100.00;97896.38;5058205;28;20024;-80
2023/05/20 01:36:17;;;;;;;13.70;7.95;;;;;;;12.25;100.00;97897.41;5058516;28;20016;-79
2023/05/20 01:38:43;;;;;;;17.15;8.60;;;;;;;12.20;100.00;97894.16;5075039;28;20027;-80
2023/05/20 01:41:08;;;;;;;13.98;7.93;;;;;;;12.21;100.00;97903.94;5058525;28;20024;-80
2023/05/20 01:43:35;;;;;;;16.25;7.88;;;;;;;12.22;100.00;97895.78;5074849;28;20031;-80
2023/05/20 01:46:01;;;;;;;18.60;7.93;;;;;;;12.17;100.00;97897.91;5075115;28;20099;-80
2023/05/20 01:48:27;;;;;;;13.23;8.20;;;;;;;12.16;100.00;97903.34;5058344;28;20035;-79
2023/05/20 01:50:52;;;;;;;13.18;8.50;;;;;;;12.11;100.00;97903.66;5057803;28;20019;-79
2023/05/20 01:53:18;;;;;;;17.88;8.65;;;;;;;12.09;100.00;97908.25;5074415;28;20050;-79
2023/05/20 01:55:43;;;;;;;21.95;9.55;;;;;;;12.02;100.00;97904.22;5057871;28;20035;-79
2023/05/20 01:58:09;;;;;;;16.95;9.20;;;;;;;12.05;100.00;97914.78;5074624;28;20055;-79
2023/05/20 02:00:34;;;;;;;19.60;9.80;;;;;;;12.05;100.00;97911.22;5057906;28;20024;-79
2023/05/20 02:03:02;;;;;;;19.13;9.98;;;;;;;11.99;100.00;97914.28;5074533;28;20096;-79
2023/05/20 02:05:28;;;;;;;18.27;9.68;;;;;;;11.94;100.00;97925.28;5057817;28;20027;-79
2023/05/20 02:07:53;;;;;;;20.25;10.00;;;;;;;11.95;100.00;97929.69;5057369;28;20096;-79
2023/05/20 02:10:19;;;;;;;18.83;9.48;;;;;;;11.82;100.00;97920.66;5057624;28;20110;-78
2023/05/20 02:12:46;;;;;;;18.15;9.23;;;;;;;11.78;100.00;97924.50;5057596;28;20442;-78
2023/05/20 02:15:12;;;;;;;12.30;8.48;;;;;;;11.71;100.00;97915.97;5057920;28;20055;-79
2023/05/20 02:17:38;;;;;;;19.15;9.80;;;;;;;11.63;100.00;97909.31;5073870;28;20053;-80
2023/05/20 02:20:06;;;;;;;54.20;32.35;;;;;;;11.51;100.00;97913.59;5074195;28;20034;-79
2023/05/20 02:22:32;;;;;;;30.48;10.02;;;;;;;11.43;100.00;97915.88;5074300;28;20036;-79
2023/05/20 02:24:57;;;;;;;22.48;10.23;;;;;;;11.46;100.00;97920.16;5057228;28;20038;-79
2023/05/20 02:27:23;;;;;;;24.60;8.48;;;;;;;11.49;100.00;97912.81;5074202;28;20028;-79
2023/05/20 02:29:48;;;;;;;25.35;9.43;;;;;;;11.43;100.00;97910.50;5072798;28;20065;-79
2023/05/20 02:32:14;;;;;;;15.88;9.20;;;;;;;11.40;100.00;97902.66;5073766;28;20088;-78
2023/05/20 02:34:39;;;;;;;18.10;9.10;;;;;;;11.38;100.00;97912.59;5056633;28;20035;-79
2023/05/20 02:37:05;;;;;;;18.25;8.65;;;;;;;11.34;100.00;97911.91;5056914;28;20395;-79
2023/05/20 02:39:30;;;;;;;22.90;9.07;;;;;;;11.34;100.00;97917.28;5073758;28;20020;-79
2023/05/20 02:41:56;;;;;;;20.45;9.25;;;;;;;11.32;100.00;97923.69;5057017;28;20028;-80
2023/05/20 02:44:21;;;;;;;14.95;9.00;;;;;;;11.29;100.00;97922.03;5074226;28;20031;-79
2023/05/20 02:46:47;;;;;;;16.17;9.30;;;;;;;11.31;100.00;97930.84;5073903;28;20510;-80
2023/05/20 02:49:12;;;;;;;18.48;9.65;;;;;;;11.28;100.00;97922.13;5073615;28;20081;-80
2023/05/20 02:51:39;;;;;;;19.25;9.02;;;;;;;11.31;100.00;97932.66;5073490;28;20047;-80
2023/05/20 02:54:05;;;;;;;19.08;10.60;;;;;;;11.24;100.00;97925.94;5057044;28;20080;-80
2023/05/20 02:56:31;;;;;;;20.33;9.45;;;;;;;11.25;100.00;97939.25;5073627;28;20195;-80
2023/05/20 02:58:56;;;;;;;18.17;9.10;;;;;;;11.19;100.00;97936.06;5073389;28;20527;-78
2023/05/20 03:01:22;;;;;;;15.25;9.30;;;;;;;11.19;100.00;97931.56;5073573;28;20104;-79
2023/05/20 03:03:47;;;;;;;22.38;10.50;;;;;;;11.19;100.00;97944.97;5056526;28;20024;-78
2023/05/20 03:06:13;;;;;;;21.45;10.68;;;;;;;11.16;100.00;97942.47;5073225;28;20024;-79
2023/05/20 03:08:39;;;;;;;18.98;10.70;;;;;;;11.17;100.00;97945.97;5056582;28;20084;-79
2023/05/20 03:11:04;;;;;;;28.67;13.43;;;;;;;11.12;100.00;97959.66;5056083;28;20051;-78
2023/05/20 03:13:30;;;;;;;37.53;14.52;;;;;;;11.16;100.00;97965.69;5056098;28;20048;-78
2023/05/20 03:15:55;;;;;;;40.67;16.83;;;;;;;11.16;100.00;97949.63;5073050;28;20513;-78
2023/05/20 03:18:21;;;;;;;32.25;14.85;;;;;;;11.25;100.00;97960.66;5056601;28;20066;-78
2023/05/20 03:20:46;;;;;;;22.52;12.60;;;;;;;11.25;100.00;97951.75;5072980;28;20531;-78
2023/05/20 03:23:12;;;;;;;22.88;11.82;;;;;;;11.29;100.00;97967.56;5056366;28;20024;-78
2023/05/20 03:25:39;;;;;;;21.88;11.93;;;;;;;11.25;100.00;97949.97;5073258;28;20391;-79
2023/05/20 03:28:05;;;;;;;21.63;11.50;;;;;;;11.28;100.00;97944.41;5073023;28;20032;-79
2023/05/20 03:30:31;;;;;;;22.45;10.80;;;;;;;11.34;100.00;97961.94;5073035;28;20510;-79
2023/05/20 03:32:57;;;;;;;29.00;11.80;;;;;;;11.38;100.00;97971.53;5056132;28;20115;-79
2023/05/20 03:35:23;;;;;;;22.73;11.23;;;;;;;11.45;100.00;97978.22;5055907;28;20028;-78
2023/05/20 03:37:50;;;;;;;34.08;13.77;;;;;;;11.46;100.00;97979.97;5091025;28;20399;-78
2023/05/20 03:40:16;;;;;;;45.45;20.75;;;;;;;11.51;100.00;97990.41;5056250;28;20039;-78
2023/05/20 03:42:41;;;;;;;34.03;15.35;;;;;;;11.55;100.00;97990.16;5060283;28;20510;-79
2023/05/20 03:45:07;;;;;;;30.42;15.40;;;;;;;11.65;100.00;97990.47;5060193;28;20165;-79
2023/05/20 03:47:33;;;;;;;25.15;14.13;;;;;;;11.69;100.00;97994.72;5060532;28;20024;-78
2023/05/20 03:49:58;;;;;;;26.85;13.23;;;;;;;11.73;100.00;97983.72;5076817;28;20028;-81
2023/05/20 03:52:24;;;;;;;25.35;13.05;;;;;;;11.83;100.00;97982.25;5060309;28;20495;-81
2023/05/20 03:54:49;;;;;;;26.08;12.60;;;;;;;11.90;100.00;97974.69;5060327;28;20427;-81
2023/05/20 03:57:15;;;;;;;21.30;11.82;;;;;;;11.97;100.00;97972.50;5076994;28;20024;-80
2023/05/20 03:59:40;;;;;;;28.80;12.60;;;;;;;12.02;100.00;97973.94;5077174;28;20039;-79
2023/05/20 04:02:07;;;;;;;28.75;14.73;;;;;;;12.03;100.00;97969.44;5076350;28;20028;-80
2023/05/20 04:04:33;;;;;;;18.48;9.93;;;;;;;12.17;100.00;97977.50;5076804;28;20028;-80
2023/05/20 04:06:59;;;;;;;18.20;9.52;;;;;;;12.23;100.00;97964.59;5076608;28;20089;-78
2023/05/20 04:09:25;;;;;;;20.75;9.18;;;;;;;12.15;100.00;97948.09;5059866;28;20035;-79
2023/05/20 04:11:51;;;;;;;19.60;10.70;;;;;;;12.29;100.00;97956.16;5076414;28;20513;-81
2023/05/20 04:14:17;;;;;;;20.38;8.98;;;;;;;12.36;100.00;97954.81;5059416;28;20044;-79
2023/05/20 04:16:43;;;;;;;15.55;8.50;;;;;;;12.30;100.00;97949.84;5076463;28;20024;-80
2023/05/20 04:19:09;;;;;;;16.23;9.65;;;;;;;12.30;100.00;97944.47;5076499;28;20024;-80
2023/05/20 04:21:35;;;;;;;27.83;9.32;;;;;;;12.39;100.00;97946.59;5059378;28;20039;-80
2023/05/20 04:24:00;;;;;;;20.48;8.73;;;;;;;12.37;100.00;97934.19;5076047;28;20028;-79
2023/05/20 04:26:26;;;;;;;15.10;9.40;;;;;;;12.44;100.00;97949.81;5059306;28;20024;-79
2023/05/20 04:28:51;;;;;;;27.25;13.93;;;;;;;12.66;100.00;97948.47;5076289;28;20028;-83
2023/05/20 04:31:17;;;;;;;20.92;11.48;;;;;;;13.44;100.00;97953.19;5075974;28;20028;-81
2023/05/20 04:33:43;;;;;;;16.08;9.60;;;;;;;13.95;100.00;97911.09;5094211;28;20028;-81
2023/05/20 04:36:10;;;;;;;21.50;10.15;;;;;;;13.84;100.00;97894.88;5059484;28;20085;-79
2023/05/20 04:38:37;;;;;;;23.60;9.85;;;;;;;13.67;100.00;97879.03;5059338;28;20032;-79
2023/05/20 04:41:03;;;;;;;21.35;10.32;;;;;;;13.51;100.00;97882.75;5059408;28;20020;-80
2023/05/20 04:43:29;;;;;;;21.25;11.90;;;;;;;13.44;100.00;97884.13;5059683;28;20398;-80
2023/05/20 04:45:58;;;;;;;25.95;12.82;;;;;;;13.49;100.00;97884.72;5076106;28;20460;-80
2023/05/20 04:48:24;;;;;;;17.45;10.27;;;;;;;13.49;100.00;97882.03;5075941;28;20507;-80
2023/05/20 04:50:50;;;;;;;25.95;11.57;;;;;;;13.42;100.00;97880.72;5058996;28;20063;-81
2023/05/20 04:53:20;;;;;;;22.73;12.88;;;;;;;13.61;100.00;97891.06;5058092;28;20059;-80
2023/05/20 04:55:46;;;;;;;25.60;12.00;;;;;;;13.68;100.00;97875.38;5075442;28;20032;-80
2023/05/20 04:58:14;;;;;;;20.95;10.20;;;;;;;13.87;100.00;97886.59;5058942;28;20024;-80
2023/05/20 05:00:44;;;;;;;19.42;11.93;;;;;;;14.00;100.00;97873.97;5059405;28;20032;-80
2023/05/20 05:03:11;;;;;;;25.70;12.40;;;;;;;14.06;100.00;97870.84;5075997;28;20487;-88
2023/05/20 05:05:38;;;;;;;16.45;9.50;;;;;;;14.19;100.00;97870.84;5059601;28;20027;-79
2023/05/20 05:08:04;;;;;;;18.27;9.68;;;;;;;14.46;100.00;97869.75;5058400;28;20082;-75
2023/05/20 05:10:30;;;;;;;19.23;10.35;;;;;;;14.57;100.00;97842.94;5075343;28;20111;-78
2023/05/20 05:12:56;;;;;;;25.65;10.55;;;;;;;14.75;100.00;97839.84;5058384;28;20036;-77
2023/05/20 05:15:22;;;;;;;16.48;8.90;;;;;;;15.07;100.00;97846.41;5055992;28;20043;-78
2023/05/20 05:17:47;;;;;;;15.25;8.35;;;;;;;16.05;100.00;97837.88;5072598;28;20032;-79
2023/05/20 05:20:13;;;;;;;12.43;7.32;;;;;;;17.31;100.00;97815.69;5072601;28;20500;-79
2023/05/20 05:22:40;;;;;;;11.55;7.60;;;;;;;18.47;100.00;97798.28;5072543;28;20031;-79
2023/05/20 05:25:06;;;;;;;36.58;15.52;;;;;;;19.60;100.00;97781.44;5072083;28;20019;-78
2023/05/20 05:27:32;;;;;;;12.65;7.50;;;;;;;20.61;100.00;97756.25;5055039;28;20063;-79
2023/05/20 05:29:57;;;;;;;12.30;7.32;;;;;;;20.84;100.00;97747.50;5058079;28;20558;-79
2023/05/20 05:32:23;;;;;;;20.17;7.53;;;;;;;22.00;98.51;97734.56;5072355;28;20396;-79
2023/05/20 05:34:48;;;;;;;17.65;9.23;;;;;;;22.72;90.62;97715.97;5072527;28;20097;-81
2023/05/20 05:37:14;;;;;;;21.42;10.40;;;;;;;23.42;84.76;97706.38;5052791;28;20036;-80
2023/05/20 05:39:39;;;;;;;16.52;8.60;;;;;;;23.73;80.45;97696.44;5072172;28;20063;-79
2023/05/20 05:42:05;;;;;;;16.02;8.65;;;;;;;24.31;76.19;97689.78;5072383;28;20099;-79
2023/05/20 05:44:30;;;;;;;19.25;8.27;;;;;;;24.88;72.17;97682.19;5072236;28;20028;-80
2023/05/20 05:46:56;;;;;;;22.08;8.80;;;;;;;25.38;66.72;97673.44;5090054;28;20038;-79
2023/05/20 05:49:21;;;;;;;15.77;9.45;;;;;;;25.47;65.09;97672.31;5072238;28;20024;-79
2023/05/20 05:51:47;;;;;;;15.10;9.32;;;;;;;24.51;68.83;97677.41;5072038;28;20035;-79
2023/05/20 05:54:12;;;;;;;20.25;10.10;;;;;;;25.12;68.83;97691.09;5089935;28;20040;-80
2023/05/20 05:56:38;;;;;;;23.63;10.95;;;;;;;25.41;65.26;97684.84;5055152;28;20507;-79
2023/05/20 05:59:04;;;;;;;21.95;10.02;;;;;;;25.61;64.27;97680.59;5071532;28;20089;-80
2023/05/20 06:01:30;;;;;;;19.02;11.25;;;;;;;26.19;62.43;97674.34;5071696;28;20441;-81
2023/05/20 06:03:55;;;;;;;34.05;18.75;;;;;;;26.18;60.49;97678.13;5055070;28;20028;-80
2023/05/20 06:06:21;;;;;;;24.67;11.82;;;;;;;26.65;59.85;97680.44;5071859;28;20535;-80
2023/05/20 06:08:46;;;;;;;26.23;13.23;;;;;;;27.37;57.18;97669.41;5055073;28;20416;-79
2023/05/20 06:11:12;;;;;;;23.17;10.68;;;;;;;27.28;55.16;97681.59;5089591;28;20024;-79
2023/05/20 06:13:37;;;;;;;23.27;10.43;;;;;;;25.69;62.14;97682.38;5071257;28;20077;-78
2023/05/20 06:16:03;;;;;;;18.65;10.43;;;;;;;25.89;63.02;97694.53;5070906;28;20032;-79
2023/05/20 06:18:29;;;;;;;20.08;11.13;;;;;;;25.85;65.18;97693.19;5089643;28;20024;-80
2023/05/20 06:20:56;;;;;;;18.20;9.50;;;;;;;26.15;61.99;97700.44;5071287;28;20403;-79
2023/05/20 06:23:21;;;;;;;26.95;12.85;;;;;;;26.92;59.52;97698.09;5071090;28;20052;-79
2023/05/20 06:25:47;;;;;;;52.50;30.10;;;;;;;27.19;57.17;97697.38;5054425;28;20377;-79
2023/05/20 06:28:13;;;;;;;16.85;8.88;;;;;;;26.79;57.46;97686.94;5054664;28;20092;-79
2023/05/20 06:30:40;;;;;;;13.38;6.35;;;;;;;26.45;57.84;97676.59;5054038;28;20032;-79
2023/05/20 06:33:05;;;;;;;10.63;6.40;;;;;;;26.77;57.83;97691.75;5071026;28;20047;-79
2023/05/20 06:35:33;;;;;;;11.18;6.60;;;;;;;26.13;56.03;97658.63;5071208;28;20031;-79
2023/05/20 06:38:00;;;;;;;11.82;5.80;;;;;;;26.84;53.56;97673.50;5054717;28;20122;-78
2023/05/20 06:40:26;;;;;;;7.55;5.68;;;;;;;27.67;51.82;97673.72;5054482;28;20477;-78
2023/05/20 06:42:51;;;;;;;9.05;5.95;;;;;;;28.30;48.36;97667.19;5070786;28;20439;-79
2023/05/20 06:45:17;;;;;;;6.60;5.30;;;;;;;29.12;47.18;97672.63;5054454;28;20060;-80
2023/05/20 06:47:43;;;;;;;11.77;6.82;;;;;;;29.18;46.67;97658.03;5070741;28;20031;-79
2023/05/20 06:50:09;;;;;;;11.00;6.15;;;;;;;29.11;45.96;97639.75;5070837;28;20047;-80
2023/05/20 06:52:35;;;;;;;12.07;5.20;;;;;;;29.11;46.37;97648.03;5070858;28;20106;-79
2023/05/20 06:55:01;;;;;;;12.10;6.28;;;;;;;28.83;46.68;97639.91;5054159;28;20108;-79
2023/05/20 06:57:26;;;;;;;7.63;5.40;;;;;;;28.41;47.12;97630.84;5070724;28;20503;-80
2023/05/20 06:59:52;;;;;;;14.43;6.13;;;;;;;28.78;46.29;97637.78;5070981;28;20031;-79
2023/05/20 07:02:17;;;;;;;12.43;7.35;;;;;;;29.10;45.35;97638.94;5054173;28;20103;-79
2023/05/20 07:04:43;;;;;;;8.60;5.32;;;;;;;29.38;44.68;97630.50;5089068;28;20063;-78
2023/05/20 07:07:08;;;;;;;8.43;5.43;;;;;;;29.85;44.32;97626.69;5070696;28;20032;-79
2023/05/20 07:09:34;;;;;;;11.27;6.03;;;;;;;30.78;42.92;97644.69;5053501;28;20036;-79
2023/05/20 07:11:59;;;;;;;11.77;6.45;;;;;;;31.05;42.09;97633.31;5070647;28;20028;-79
2023/05/20 07:14:25;;;;;;;10.52;6.90;;;;;;;31.59;41.54;97629.94;5053635;28;20040;-79
2023/05/20 07:16:51;;;;;;;12.93;5.85;;;;;;;31.79;41.05;97620.63;5053288;28;20028;-77
2023/05/20 07:19:16;;;;;;;12.50;6.05;;;;;;;31.04;42.01;97614.19;5053738;28;20028;-77
2023/05/20 07:21:42;;;;;;;9.60;6.18;;;;;;;30.12;43.06;97597.97;5070254;28;20551;-78
2023/05/20 07:24:07;;;;;;;6.78;5.38;;;;;;;30.59;42.95;97619.72;5070609;28;20084;-78
2023/05/20 07:26:35;;;;;;;64.45;40.80;;;;;;;31.95;40.80;97618.16;5070567;28;20031;-79
2023/05/20 07:29:01;;;;;;;11.88;8.00;;;;;;;30.60;41.68;97585.50;5070750;28;20063;-78
2023/05/20 07:31:27;;;;;;;22.55;6.70;;;;;;;28.68;45.90;97593.28;5070493;28;20024;-78
2023/05/20 07:33:52;;;;;;;8.27;5.50;;;;;;;28.71;46.25;97600.25;5053443;28;20119;-79
2023/05/20 07:36:18;;;;;;;11.48;6.05;;;;;;;28.88;46.25;97591.44;5053388;28;20039;-78
2023/05/20 07:38:44;;;;;;;18.00;6.82;;;;;;;29.31;46.48;97605.72;5070114;28;20064;-78
2023/05/20 07:41:10;;;;;;;10.65;5.68;;;;;;;29.55;47.32;97610.59;5053745;28;20480;-77
2023/05/20 07:43:35;;;;;;;11.68;5.70;;;;;;;30.80;44.85;97614.94;5070503;28;20106;-78
2023/05/20 07:46:01;;;;;;;11.73;5.93;;;;;;;31.09;44.22;97617.13;5053757;28;20023;-78
2023/05/20 07:48:27;;;;;;;9.73;6.20;;;;;;;31.07;43.01;97597.16;5070527;28;20477;-79
2023/05/20 07:50:52;;;;;;;7.53;4.80;;;;;;;30.53;43.31;97581.06;5053265;28;20039;-79
2023/05/20 07:53:18;;;;;;;9.00;5.70;;;;;;;30.81;43.14;97589.84;5070105;28;20402;-78
2023/05/20 07:55:44;;;;;;;11.25;5.65;;;;;;;30.21;43.62;97579.28;5070266;28;20041;-79
2023/05/20 07:58:10;;;;;;;12.00;5.82;;;;;;;29.70;45.47;97573.63;5053349;28;20100;-80
2023/05/20 08:00:35;;;;;;;17.75;5.68;;;;;;;29.98;46.07;97597.19;5070223;28;20044;-79
2023/05/20 08:03:01;;;;;;;12.93;5.40;;;;;;;29.68;46.09;97584.06;5069681;28;20054;-79
2023/05/20 08:05:27;;;;;;;11.98;6.25;;;;;;;30.26;46.44;97599.66;5070149;28;20031;-79
2023/05/20 08:07:52;;;;;;;12.88;5.78;;;;;;;30.91;43.46;97586.59;5069992;28;20461;-78
2023/05/20 08:10:18;;;;;;;9.90;5.55;;;;;;;31.04;44.02;97592.91;5070002;28;20076;-77
2023/05/20 08:12:43;;;;;;;10.02;5.43;;;;;;;31.54;42.72;97595.75;5053326;28;20451;-79
2023/05/20 08:15:09;;;;;;;10.38;5.40;;;;;;;30.71;43.20;97569.28;5069484;28;20465;-79
2023/05/20 08:17:35;;;;;;;8.18;6.30;;;;;;;31.79;42.39;97596.59;5053122;28;20028;-79
2023/05/20 08:20:00;;;;;;;10.23;6.25;;;;;;;31.46;41.42;97574.72;5069746;28;20023;-79
2023/05/20 08:22:26;;;;;;;8.52;5.28;;;;;;;30.20;44.20;97569.31;5070156;28;20049;-79
2023/05/20 08:24:52;;;;;;;8.00;5.63;;;;;;;28.91;43.71;97544.19;5053297;28;20032;-78
2023/05/20 08:27:17;;;;;;;10.65;6.20;;;;;;;27.22;49.16;97556.00;5088009;28;20023;-78
2023/05/20 08:29:44;;;;;;;8.05;5.55;;;;;;;28.01;49.65;97573.88;5056769;28;20154;-78
2023/05/20 08:32:10;;;;;;;8.70;5.70;;;;;;;28.24;49.00;97576.38;5056867;28;20027;-79
2023/05/20 08:34:35;;;;;;;8.75;5.47;;;;;;;28.78;48.21;97576.34;5056799;28;20119;-78
2023/05/20 08:37:01;;;;;;;8.88;5.78;;;;;;;29.22;43.36;97557.34;5073869;28;20103;-78
2023/05/20 08:39:27;;;;;;;9.73;6.05;;;;;;;29.96;43.94;97577.22;5073366;28;20118;-79
2023/05/20 08:41:53;;;;;;;9.65;6.43;;;;;;;29.05;44.21;97545.03;5056469;28;20107;-79
2023/05/20 08:44:18;;;;;;;12.10;5.43;;;;;;;28.34;45.80;97546.53;5073568;28;20479;-79
2023/05/20 08:46:45;;;;;;;12.77;9.20;;;;;;;28.66;45.16;97547.72;5056914;28;20073;-78
2023/05/20 08:49:10;;;;;;;14.80;6.85;;;;;;;28.09;47.59;97546.22;5073174;28;20119;-78
2023/05/20 08:51:36;;;;;;;9.52;6.32;;;;;;;27.33;51.51;97548.06;5056273;28;20110;-78
2023/05/20 08:54:02;;;;;;;10.68;6.45;;;;;;;27.93;50.07;97555.63;5056462;28;20364;-78
2023/05/20 08:56:28;;;;;;;10.68;5.88;;;;;;;27.33;49.84;97541.72;5073214;28;20035;-79
2023/05/20 08:58:53;;;;;;;8.77;6.43;;;;;;;27.93;48.54;97549.31;5073377;28;20089;-79
2023/05/20 09:01:23;;;;;;;10.48;6.10;;;;;;;28.26;48.45;97552.25;5073032;28;20028;-78
2023/05/20 09:03:49;;;;;;;13.05;6.07;;;;;;;27.71;49.40;97534.81;5073078;28;20036;-78
2023/05/20 09:06:16;;;;;;;8.68;6.15;;;;;;;27.84;49.82;97545.03;5072888;28;20042;-80
2023/05/20 09:08:43;;;;;;;10.25;5.50;;;;;;;28.23;48.00;97550.75;5072673;28;20135;-79
2023/05/20 09:11:09;;;;;;;19.73;9.93;;;;;;;28.35;46.36;97548.25;5073030;28;20066;-80
2023/05/20 09:13:35;;;;;;;18.25;10.07;;;;;;;28.28;47.54;97556.47;5056052;28;20070;-80
2023/05/20 09:16:01;;;;;;;12.50;6.60;;;;;;;30.23;44.60;97561.44;5073800;28;20031;-79
2023/05/20 09:18:28;;;;;;;7.53;5.32;;;;;;;30.70;42.53;97559.31;5057703;28;20032;-78
2023/05/20 09:20:53;;;;;;;8.25;5.72;;;;;;;30.66;41.19;97538.72;5075392;28;20024;-79
2023/05/20 09:23:24;;;;;;;10.95;6.00;;;;;;;31.05;41.57;97544.00;5074801;28;20024;-79
2023/05/20 09:25:50;;;;;;;8.00;5.78;;;;;;;29.27;44.26;97518.97;5075724;28;20411;-80
2023/05/20 09:28:18;;;;;;;12.45;6.32;;;;;;;29.22;44.68;97521.50;5058163;28;20431;-79
2023/05/20 09:30:43;;;;;;;13.38;6.07;;;;;;;30.63;43.38;97538.13;5058252;28;20028;-79
2023/05/20 09:33:11;;;;;;;10.95;6.57;;;;;;;31.83;40.16;97528.63;5075248;28;20396;-79
2023/05/20 09:35:37;;;;;;;7.32;5.65;;;;;;;31.83;39.34;97520.34;5058230;28;20032;-79
2023/05/20 09:38:04;;;;;;;25.60;14.75;;;;;;;33.51;37.96;97540.59;5069245;28;20488;-80
2023/05/20 09:40:29;;;;;;;15.63;10.77;;;;;;;33.32;37.77;97520.44;5074688;28;20012;-80
2023/05/20 09:43:07;;;;;;;14.00;7.00;;;;;;;30.88;39.13;97471.84;5074843;28;20035;-78
2023/05/20 09:45:33;;;;;;;9.35;6.45;;;;;;;29.62;42.65;97491.16;5074914;28;20107;-79
2023/05/20 09:48:00;;;;;;;15.93;5.80;;;;;;;29.76;41.80;97481.75;5058131;28;20119;-79
2023/05/20 09:50:27;;;;;;;9.38;6.55;;;;;;;29.61;42.13;97489.44;5074624;28;20079;-79
2023/05/20 09:52:54;;;;;;;18.35;10.98;;;;;;;29.38;41.83;97482.47;5075040;28;20123;-79
2023/05/20 09:55:22;;;;;;;12.27;5.80;;;;;;;29.46;42.02;97482.28;5058038;28;20476;-79
2023/05/20 09:57:47;;;;;;;9.43;4.93;;;;;;;31.07;41.17;97517.00;5074328;28;20019;-79
2023/05/20 10:00:16;;;;;;;9.02;5.68;;;;;;;33.30;36.48;97528.16;5074624;28;20016;-79
2023/05/20 10:02:46;;;;;;;8.80;4.43;;;;;;;34.46;35.26;97527.22;5057844;28;20123;-79
2023/05/20 10:05:18;;;;;;;8.68;5.05;;;;;;;34.38;34.79;97502.63;5052780;28;20472;-80
2023/05/20 10:08:09;;;;;;;7.95;5.60;;;;;;;33.75;35.89;97482.09;5074545;28;20498;-80
2023/05/20 10:11:04;;;;;;;8.10;5.72;;;;;;;34.02;36.29;97498.22;5092278;28;20028;-79
2023/05/20 10:13:30;;;;;;;12.82;9.35;;;;;;;34.09;35.87;97483.09;5072105;28;20044;-80
2023/05/20 10:16:01;;;;;;;6.65;5.50;;;;;;;33.89;35.81;97476.28;5092455;28;20043;-80
2023/05/20 10:18:41;;;;;;;7.82;4.82;;;;;;;33.85;35.45;97458.41;5092047;28;20024;-80
2023/05/20 10:21:17;;;;;;;15.55;11.27;;;;;;;32.44;37.94;97452.91;5092619;28;20499;-80
2023/05/20 10:23:43;;;;;;;9.85;6.05;;;;;;;31.41;38.94;97452.03;5057611;28;20028;-79
2023/05/20 10:26:09;;;;;;;13.77;7.15;;;;;;;31.01;40.27;97448.81;5074101;28;20077;-80
2023/05/20 10:28:36;;;;;;;52.40;39.30;;;;;;;30.58;41.58;97463.34;5074161;28;20085;-78
2023/05/20 10:31:03;;;;;;;5.93;4.60;;;;;;;31.13;38.18;97455.28;5057179;28;20035;-79
2023/05/20 10:33:29;;;;;;;8.13;5.63;;;;;;;32.15;36.68;97462.88;5073970;28;20023;-78
2023/05/20 10:35:58;;;;;;;10.90;6.25;;;;;;;32.25;36.93;97451.25;5089070;28;20051;-79
2023/05/20 10:38:24;;;;;;;15.10;8.30;;;;;;;31.35;37.41;97428.88;5073974;28;20059;-79
2023/05/20 10:40:51;;;;;;;8.95;6.53;;;;;;;29.85;40.01;97425.31;5091809;28;20051;-80
2023/05/20 10:43:27;;;;;;;12.77;5.97;;;;;;;30.25;39.72;97442.50;5057180;28;20077;-79
2023/05/20 10:45:57;;;;;;;9.80;5.40;;;;;;;30.15;39.62;97429.19;5074136;28;20035;-80
2023/05/20 10:48:27;;;;;;;12.15;4.88;;;;;;;29.55;39.55;97416.72;5073813;28;20031;-81
2023/05/20 10:50:55;;;;;;;5.20;4.35;;;;;;;29.82;39.61;97434.03;5091081;28;20055;-80
2023/05/20 10:53:22;;;;;;;10.40;4.72;;;;;;;30.94;37.83;97431.41;5057010;28;20032;-80
2023/05/20 10:55:52;;;;;;;8.05;4.85;;;;;;;31.06;37.79;97438.75;5056730;28;20118;-80
2023/05/20 10:58:18;;;;;;;7.60;4.80;;;;;;;31.99;37.14;97449.69;5073162;28;20117;-80
2023/05/20 11:00:44;;;;;;;13.07;5.68;;;;;;;32.18;36.09;97440.28;5074044;28;20499;-81
2023/05/20 11:03:11;;;;;;;7.07;4.32;;;;;;;31.50;35.59;97409.22;5056992;28;20028;-80
2023/05/20 11:05:38;;;;;;;10.25;4.53;;;;;;;30.29;37.95;97408.72;5056906;28;20402;-80
2023/05/20 11:08:06;;;;;;;6.97;5.10;;;;;;;29.40;40.03;97413.38;5073270;28;20024;-79
2023/05/20 11:10:35;;;;;;;9.98;5.57;;;;;;;28.06;42.70;97420.09;5073308;28;20506;-81
2023/05/20 11:13:02;;;;;;;10.15;5.10;;;;;;;27.08;45.54;97425.94;5072974;28;20037;-80
2023/05/20 11:15:29;;;;;;;11.80;5.80;;;;;;;26.39;48.60;97420.28;5056573;28;20491;-80
2023/05/20 11:18:00;;;;;;;11.40;5.32;;;;;;;26.37;51.16;97452.56;5056557;28;20083;-80